Time;durP1;ratioP1;P1;durP2;ratioP2;P2;SDS_P1;SDS_P2;PMS_P1;PMS_P2;Temp;Humidity;BMP_temperature;BMP_pressure;BME280_temperature;BME280_humidity;BME280_pressure;Samples;Min_cycle;Max_cycle;Signal;HPM_P1;HPM_P2
2022/12/30 00:00:24;;;;;;;16.43;3.50;;;7.80;1.00;;;;;;4859913;29;20272;-85
2022/12/30 00:02:50;;;;;;;9.27;3.10;;;7.80;1.00;;;;;;4861973;29;20203;-86
2022/12/30 00:05:18;;;;;;;13.00;3.20;;;7.80;1.00;;;;;;4868224;29;20187;-86
2022/12/30 00:07:44;;;;;;;12.02;3.58;;;7.80;1.00;;;;;;4855820;29;20208;-85
2022/12/30 00:10:10;;;;;;;10.77;2.80;;;7.70;23.70;;;;;;4858625;29;20207;-86
2022/12/30 00:35:41;;;;;;;8.52;2.20;;;7.60;99.90;;;;;;4862994;29;20796;-86
2022/12/30 00:38:09;;;;;;;13.43;2.28;;;7.60;99.90;;;;;;4861558;29;20200;-86
2022/12/30 00:40:37;;;;;;;9.43;2.15;;;7.60;99.90;;;;;;4861271;29;20295;-86
2022/12/30 00:43:28;;;;;;;12.55;2.53;;;7.60;99.90;;;;;;4864434;29;20279;-86
2022/12/30 00:45:57;;;;;;;14.40;2.55;;;7.60;99.90;;;;;;4873067;29;20259;-87
2022/12/30 00:57:10;;;;;;;13.25;2.72;;;7.50;99.90;;;;;;4863224;29;20745;-86
2022/12/30 00:59:45;;;;;;;7.72;2.30;;;7.50;99.90;;;;;;4863731;29;20215;-86
2022/12/30 01:02:17;;;;;;;8.80;2.67;;;7.50;99.90;;;;;;4859425;29;20191;-87
2022/12/30 01:04:54;;;;;;;14.18;3.72;;;7.50;99.90;;;;;;4859646;29;20689;-87
2022/12/30 01:07:20;;;;;;;20.25;2.33;;;7.50;99.90;;;;;;4861720;29;20211;-87
2022/12/30 01:09:51;;;;;;;9.03;2.50;;;7.50;99.90;;;;;;4849697;29;20209;-86
2022/12/30 01:12:20;;;;;;;14.13;3.03;;;7.40;99.90;;;;;;4860569;29;20555;-86
2022/12/30 01:15:16;;;;;;;11.45;2.28;;;7.40;1.00;;;;;;4870272;29;20201;-87
2022/12/30 01:17:44;;;;;;;9.70;2.67;;;7.40;1.00;;;;;;4860868;29;20283;-86
2022/12/30 01:20:13;;;;;;;9.07;1.85;;;7.40;1.00;;;;;;4861913;29;20587;-87
2022/12/30 01:22:48;;;;;;;12.43;2.55;;;7.40;1.00;;;;;;4861313;29;20200;-86
2022/12/30 01:25:14;;;;;;;15.57;2.85;;;7.30;1.00;;;;;;4856316;29;20194;-86
2022/12/30 01:27:39;;;;;;;9.53;2.30;;;7.30;1.00;;;;;;4862672;29;20220;-87
2022/12/30 01:30:06;;;;;;;10.17;2.97;;;7.30;1.00;;;;;;4864576;29;20216;-86
2022/12/30 01:32:43;;;;;;;12.32;2.65;;;7.30;1.00;;;;;;4862039;29;20188;-87
2022/12/30 01:35:18;;;;;;;6.72;2.20;;;7.30;1.00;;;;;;4872231;29;20692;-86
2022/12/30 01:37:43;;;;;;;16.75;2.63;;;7.30;1.00;;;;;;4864064;29;20196;-86
2022/12/30 01:40:15;;;;;;;9.70;2.53;;;7.30;1.00;;;;;;4844720;29;20208;-86
2022/12/30 01:42:46;;;;;;;12.50;2.45;;;7.20;1.00;;;;;;4852511;29;20200;-87
2022/12/30 01:45:26;;;;;;;17.60;2.97;;;7.20;1.00;;;;;;4858897;29;20638;-87
2022/12/30 01:48:24;;;;;;;17.90;3.60;;;7.20;99.90;;;;;;4869938;29;20695;-86
2022/12/30 01:51:07;;;;;;;10.93;2.40;;;7.20;99.90;;;;;;4868153;29;20232;-87
2022/12/30 01:53:42;;;;;;;6.93;1.80;;;7.20;99.90;;;;;;4859427;29;20192;-86
2022/12/30 01:56:18;;;;;;;14.30;2.55;;;7.20;99.90;;;;;;4862046;29;20191;-87
2022/12/30 01:58:47;;;;;;;7.38;2.78;;;7.20;99.90;;;;;;4859463;29;20212;-87
2022/12/30 02:01:22;;;;;;;16.33;2.83;;;7.20;99.90;;;;;;4857417;29;20198;-87
2022/12/30 02:04:03;;;;;;;12.35;2.90;;;7.20;99.90;;;;;;4862268;29;20669;-87
2022/12/30 02:06:51;;;;;;;14.13;3.30;;;7.20;99.90;;;;;;4856120;29;20189;-87
2022/12/30 02:09:17;;;;;;;9.32;2.65;;;7.20;99.90;;;;;;4861893;29;20697;-86
2022/12/30 02:11:46;;;;;;;16.63;2.45;;;7.20;99.90;;;;;;4855260;29;20199;-87
2022/12/30 02:14:12;;;;;;;19.48;3.10;;;7.20;99.90;;;;;;4858500;29;20224;-87
2022/12/30 02:17:16;;;;;;;9.90;2.17;;;7.20;99.90;;;;;;4857187;29;20192;-86
2022/12/30 02:20:32;;;;;;;15.07;2.78;;;7.20;99.90;;;;;;4858280;29;20260;-87
2022/12/30 02:23:16;;;;;;;12.77;3.65;;;7.20;99.90;;;;;;4873634;29;20193;-87
2022/12/30 02:26:11;;;;;;;11.38;2.55;;;7.10;99.90;;;;;;4886884;29;20599;-86
2022/12/30 02:29:05;;;;;;;11.38;3.25;;;7.10;99.90;;;;;;4854186;29;20246;-87
2022/12/30 02:31:43;;;;;;;18.23;3.10;;;7.10;1.00;;;;;;4863402;29;20215;-86
2022/12/30 02:34:39;;;;;;;14.40;3.95;;;7.10;1.00;;;;;;4864684;29;20237;-87
2022/12/30 02:37:28;;;;;;;9.98;2.08;;;7.10;1.00;;;;;;4874173;29;20704;-87
2022/12/30 02:40:07;;;;;;;17.15;3.00;;;7.10;1.00;;;;;;4857575;29;20230;-86
2022/12/30 02:45:51;;;;;;;6.70;2.17;;;7.10;87.30;;;;;;4851556;29;20215;-86
2022/12/30 02:48:26;;;;;;;13.23;1.80;;;7.00;99.90;;;;;;4861339;29;20221;-85
2022/12/30 02:53:39;;;;;;;10.02;2.88;;;7.10;99.90;;;;;;4855537;29;20195;-87
2022/12/30 02:56:08;;;;;;;10.80;2.47;;;7.10;1.00;;;;;;4862789;29;20181;-87
2022/12/30 02:58:37;;;;;;;13.85;2.65;;;7.10;1.00;;;;;;4866824;29;20224;-86
2022/12/30 03:04:43;;;;;;;13.00;2.35;;;7.10;1.00;;;;;;4846095;29;20867;-87
2022/12/30 03:07:48;;;;;;;13.05;2.60;;;7.10;1.00;;;;;;4857468;29;20580;-87
2022/12/30 03:11:26;;;;;;;18.63;2.47;;;7.10;99.90;;;;;;4855363;29;20681;-87
2022/12/30 03:14:22;;;;;;;10.93;2.47;;;7.10;99.90;;;;;;4871979;29;20212;-87
2022/12/30 03:16:55;;;;;;;11.70;2.95;;;7.10;99.90;;;;;;4873946;29;20661;-87
2022/12/30 03:19:23;;;;;;;15.60;2.58;;;7.10;99.90;;;;;;4844388;29;20224;-87
2022/12/30 03:21:54;;;;;;;15.07;4.05;;;7.10;1.00;;;;;;4855858;29;20184;-86
2022/12/30 03:27:13;;;;;;;7.43;2.40;;;7.00;1.00;;;;;;4867032;29;20272;-86
2022/12/30 03:29:51;;;;;;;9.65;2.97;;;7.00;1.00;;;;;;4861023;29;20219;-86
2022/12/30 03:33:08;;;;;;;13.45;3.55;;;7.00;1.00;;;;;;4860175;29;20247;-86
2022/12/30 03:35:39;;;;;;;10.82;3.67;;;7.00;1.00;;;;;;4857418;29;20187;-87
2022/12/30 03:38:08;;;;;;;10.27;2.60;;;6.90;1.00;;;;;;4859902;29;20271;-87
2022/12/30 03:40:38;;;;;;;10.73;3.42;;;6.90;1.00;;;;;;4859971;29;20222;-87
2022/12/30 03:43:14;;;;;;;22.90;3.30;;;6.80;1.00;;;;;;4860279;29;20266;-86
2022/12/30 03:45:39;;;;;;;8.32;2.00;;;6.80;51.90;;;;;;4851517;29;20204;-86
2022/12/30 03:48:05;;;;;;;6.37;2.93;;;6.70;99.90;;;;;;4866601;29;20908;-86
2022/12/30 03:50:31;;;;;;;10.10;2.50;;;6.70;99.90;;;;;;4863165;29;20468;-86
2022/12/30 03:52:56;;;;;;;12.23;2.87;;;6.70;99.90;;;;;;4857903;29;20184;-87
2022/12/30 03:55:22;;;;;;;12.20;4.30;;;6.60;1.00;;;;;;4850904;29;20738;-86
2022/12/30 03:57:47;;;;;;;13.53;2.83;;;6.60;1.00;;;;;;4863259;29;20665;-86
2022/12/30 04:00:13;;;;;;;11.20;3.27;;;6.60;1.00;;;;;;4857025;29;20219;-87
2022/12/30 04:02:39;;;;;;;14.33;2.40;;;6.60;1.00;;;;;;4868563;29;20214;-86
2022/12/30 04:05:06;;;;;;;13.10;2.80;;;6.60;1.00;;;;;;4864834;29;20472;-86
2022/12/30 04:07:32;;;;;;;9.00;3.30;;;6.60;1.00;;;;;;4857176;29;20212;-87
2022/12/30 04:09:57;;;;;;;11.10;3.10;;;6.50;1.00;;;;;;4861779;29;20207;-87
2022/12/30 04:12:23;;;;;;;8.73;2.23;;;6.50;32.80;;;;;;4852160;29;20560;-86
2022/12/30 04:14:48;;;;;;;18.27;3.10;;;6.50;50.30;;;;;;4865672;29;20243;-87
2022/12/30 04:17:16;;;;;;;10.97;2.80;;;6.50;99.90;;;;;;4849917;29;20193;-86
2022/12/30 04:19:41;;;;;;;14.32;2.72;;;6.40;99.90;;;;;;4863032;29;20483;-86
2022/12/30 04:22:07;;;;;;;11.80;3.10;;;6.40;99.90;;;;;;4882802;29;20217;-86
2022/12/30 04:24:36;;;;;;;8.60;2.37;;;6.40;99.90;;;;;;4878775;29;20208;-86
2022/12/30 04:27:01;;;;;;;18.70;2.80;;;6.40;99.90;;;;;;4860746;29;20711;-87
2022/12/30 04:29:27;;;;;;;13.63;3.00;;;6.40;99.90;;;;;;4853779;29;20279;-87
2022/12/30 04:31:54;;;;;;;14.83;2.67;;;6.40;1.00;;;;;;4855224;29;20196;-87
2022/12/30 04:34:20;;;;;;;14.25;3.63;;;6.40;1.00;;;;;;4863748;29;20264;-86
2022/12/30 04:36:45;;;;;;;13.97;3.80;;;6.50;1.00;;;;;;4856802;29;20276;-86
2022/12/30 04:39:11;;;;;;;11.80;2.30;;;6.50;1.00;;;;;;4866276;29;20208;-87
2022/12/30 04:41:39;;;;;;;18.23;3.20;;;6.50;1.00;;;;;;4852548;29;20545;-87
2022/12/30 04:44:06;;;;;;;19.80;3.42;;;6.50;1.00;;;;;;4858066;29;20189;-86
2022/12/30 04:46:32;;;;;;;12.77;2.60;;;6.50;1.00;;;;;;4853377;29;20256;-86
2022/12/30 04:49:03;;;;;;;11.48;3.40;;;6.50;1.00;;;;;;4863138;29;20298;-86
2022/12/30 04:51:28;;;;;;;8.32;2.63;;;6.40;1.00;;;;;;4859658;29;20950;-86
2022/12/30 04:53:59;;;;;;;10.73;2.63;;;6.40;1.00;;;;;;4868043;29;20244;-86
2022/12/30 04:56:25;;;;;;;11.73;2.25;;;6.40;1.00;;;;;;4861696;29;20564;-87
2022/12/30 04:58:50;;;;;;;14.37;3.70;;;6.40;1.00;;;;;;4863869;29;20212;-87
2022/12/30 05:01:16;;;;;;;5.80;2.13;;;6.50;1.00;;;;;;4855641;29;20196;-86
2022/12/30 05:03:44;;;;;;;7.33;2.27;;;6.50;1.00;;;;;;4873400;29;20666;-86
2022/12/30 05:06:10;;;;;;;8.65;2.20;;;6.50;1.00;;;;;;4860692;29;20219;-87
2022/12/30 05:08:49;;;;;;;12.23;2.30;;;6.50;1.00;;;;;;4862289;29;20224;-87
2022/12/30 05:11:23;;;;;;;6.85;2.00;;;6.60;1.00;;;;;;4848844;29;20795;-87
2022/12/30 05:13:49;;;;;;;6.55;2.40;;;6.60;1.00;;;;;;4858760;29;20208;-86
2022/12/30 05:16:14;;;;;;;17.77;2.60;;;6.60;1.00;;;;;;4859159;29;20187;-86
2022/12/30 05:18:43;;;;;;;8.20;3.50;;;6.60;1.00;;;;;;4865704;29;20245;-87
2022/12/30 05:21:09;;;;;;;12.63;2.83;;;6.60;99.90;;;;;;4853129;29;20188;-86
2022/12/30 05:26:32;;;;;;;9.40;2.70;;;6.60;99.90;;;;;;4860178;29;20237;-85
2022/12/30 05:28:58;;;;;;;11.65;2.92;;;6.50;99.90;;;;;;4863538;29;20311;-87
2022/12/30 05:31:23;;;;;;;12.57;2.77;;;6.50;99.90;;;;;;4864096;29;20191;-86
2022/12/30 05:33:49;;;;;;;8.10;2.53;;;6.50;99.90;;;;;;4860122;29;20228;-86
2022/12/30 05:36:15;;;;;;;8.53;2.20;;;6.50;99.90;;;;;;4862870;29;20729;-86
2022/12/30 05:38:44;;;;;;;7.03;2.80;;;6.50;99.90;;;;;;4860325;29;20465;-87
2022/12/30 05:41:12;;;;;;;9.30;2.60;;;6.40;99.90;;;;;;4858049;29;20184;-87
2022/12/30 05:43:40;;;;;;;13.85;2.50;;;6.40;99.90;;;;;;4863820;29;20187;-86
2022/12/30 05:46:06;;;;;;;8.95;2.65;;;6.30;99.90;;;;;;4860678;29;20658;-87
2022/12/30 05:48:32;;;;;;;17.40;2.60;;;6.30;99.90;;;;;;4857973;29;20235;-87
2022/12/30 05:50:57;;;;;;;14.67;2.73;;;6.20;99.90;;;;;;4859553;29;20271;-86
2022/12/30 05:53:26;;;;;;;11.67;4.23;;;6.20;99.90;;;;;;4863757;29;20194;-87
2022/12/30 05:55:52;;;;;;;7.40;2.53;;;6.20;99.90;;;;;;4862097;29;20208;-86
2022/12/30 05:58:19;;;;;;;9.88;3.20;;;6.10;99.90;;;;;;4861776;29;20220;-86
2022/12/30 06:00:49;;;;;;;11.48;2.70;;;6.10;99.90;;;;;;4859234;29;20267;-86
2022/12/30 06:03:16;;;;;;;8.88;2.30;;;6.10;99.90;;;;;;4860597;29;20218;-86
2022/12/30 06:05:42;;;;;;;12.20;2.10;;;6.10;99.90;;;;;;4859259;29;20808;-87
2022/12/30 06:08:08;;;;;;;10.13;2.20;;;6.10;99.90;;;;;;4865925;29;20243;-87
2022/12/30 06:10:36;;;;;;;5.43;2.83;;;6.10;99.90;;;;;;4865098;29;20445;-86
2022/12/30 06:13:01;;;;;;;5.55;2.50;;;6.10;99.90;;;;;;4865809;29;20465;-86
2022/12/30 06:15:27;;;;;;;7.00;2.23;;;6.10;1.00;;;;;;4864438;29;20358;-86
2022/12/30 06:17:53;;;;;;;7.97;2.53;;;6.10;1.00;;;;;;4850761;29;20193;-86
2022/12/30 06:20:18;;;;;;;8.50;2.60;;;6.10;1.00;;;;;;4855460;29;20848;-86
2022/12/30 06:22:44;;;;;;;7.40;2.27;;;6.10;1.00;;;;;;4853865;29;20571;-86
2022/12/30 06:25:09;;;;;;;6.67;2.83;;;6.10;1.00;;;;;;4866886;29;20184;-86
2022/12/30 06:27:35;;;;;;;6.87;2.23;;;6.00;99.90;;;;;;4862570;29;20223;-86
2022/12/30 06:30:01;;;;;;;7.80;2.40;;;6.10;1.00;;;;;;4857939;29;20216;-87
2022/12/30 06:32:31;;;;;;;7.07;2.03;;;6.10;1.00;;;;;;4857753;29;20196;-86
2022/12/30 06:34:56;;;;;;;9.35;2.67;;;6.00;1.00;;;;;;4860271;29;20193;-86
2022/12/30 06:37:22;;;;;;;8.03;2.10;;;6.00;1.00;;;;;;4847833;29;20214;-86
2022/12/30 06:39:47;;;;;;;7.23;2.70;;;6.00;1.00;;;;;;4854068;29;20220;-86
2022/12/30 06:42:13;;;;;;;4.80;2.40;;;6.00;1.00;;;;;;4860086;29;20592;-86
2022/12/30 06:44:38;;;;;;;8.50;2.77;;;5.90;1.00;;;;;;4860534;29;20192;-86
2022/12/30 06:47:04;;;;;;;10.30;3.13;;;5.90;1.00;;;;;;4858665;29;20724;-87
2022/12/30 06:49:29;;;;;;;4.17;1.60;;;5.90;1.00;;;;;;4862673;29;20204;-86
2022/12/30 06:51:55;;;;;;;4.10;2.53;;;5.90;1.00;;;;;;4854170;29;20236;-86
2022/12/30 06:54:23;;;;;;;7.00;2.30;;;5.90;1.00;;;;;;4859238;29;20259;-87
2022/12/30 06:56:48;;;;;;;6.25;2.58;;;6.00;1.00;;;;;;4858216;29;20326;-86
2022/12/30 06:59:27;;;;;;;5.73;2.63;;;6.00;1.00;;;;;;4864714;29;20234;-86
2022/12/30 07:01:53;;;;;;;7.35;2.20;;;6.00;1.00;;;;;;4866852;29;20211;-86
2022/12/30 07:04:18;;;;;;;6.47;1.90;;;6.00;1.00;;;;;;4869734;29;20183;-87
2022/12/30 07:06:53;;;;;;;3.53;1.80;;;6.00;1.00;;;;;;4859177;29;20271;-86
2022/12/30 07:09:19;;;;;;;6.47;1.95;;;6.00;1.00;;;;;;4856632;29;20211;-86
2022/12/30 07:11:47;;;;;;;15.37;4.40;;;6.00;1.00;;;;;;4857996;29;20197;-86
2022/12/30 07:14:47;;;;;;;9.00;2.95;;;6.00;1.00;;;;;;4854281;29;20204;-87
2022/12/30 07:17:13;;;;;;;3.55;2.00;;;6.00;1.00;;;;;;4860521;29;20180;-86
2022/12/30 07:19:47;;;;;;;8.47;2.70;;;6.00;1.00;;;;;;4861654;29;20223;-86
2022/12/30 07:22:16;;;;;;;10.40;2.30;;;6.10;1.00;;;;;;4859772;29;20458;-86
2022/12/30 07:24:48;;;;;;;7.85;2.40;;;6.10;1.00;;;;;;4859290;29;20195;-87
2022/12/30 07:27:22;;;;;;;6.05;1.75;;;6.20;1.00;;;;;;4858722;29;20387;-86
2022/12/30 07:29:48;;;;;;;12.75;2.00;;;6.20;1.00;;;;;;4863888;29;20736;-86
2022/12/30 07:32:44;;;;;;;;;;;;;;;;;;;;;
2022/12/30 07:35:18;;;;;;;5.55;1.80;;;6.40;1.00;;;;;;4859866;29;20198;-87
2022/12/30 07:37:46;;;;;;;6.30;2.60;;;6.60;1.00;;;;;;4863825;29;20212;-87
2022/12/30 07:43:24;;;;;;;6.90;2.35;;;6.70;1.00;;;;;;4840796;29;20546;-87
2022/12/30 07:45:55;;;;;;;3.45;1.83;;;6.70;99.90;;;;;;4845921;29;20261;-87
2022/12/30 07:48:24;;;;;;;3.10;1.60;;;6.80;99.90;;;;;;4857879;29;20248;-86
2022/12/30 07:54:04;;;;;;;4.38;1.65;;;6.90;99.90;;;;;;4860480;29;20233;-87
2022/12/30 07:56:41;;;;;;;5.93;2.20;;;7.00;99.90;;;;;;4880248;29;20267;-87
2022/12/30 07:59:07;;;;;;;5.88;1.70;;;7.10;99.90;;;;;;4877912;29;20263;-87
2022/12/30 08:01:32;;;;;;;3.33;1.57;;;7.20;59.30;;;;;;4857046;29;20212;-87
2022/12/30 08:04:22;;;;;;;4.30;1.30;;;7.30;1.00;;;;;;4845636;29;20188;-87
2022/12/30 08:06:54;;;;;;;4.80;1.40;;;7.40;1.00;;;;;;4854629;29;20188;-87
2022/12/30 08:09:20;;;;;;;5.50;1.77;;;7.50;99.90;;;;;;4839808;29;20291;-88
2022/12/30 08:11:45;;;;;;;3.83;2.13;;;7.50;99.90;;;;;;4849953;29;20534;-88
2022/12/30 08:14:17;;;;;;;3.57;1.90;;;7.60;24.40;;;;;;4854664;29;20258;-87
2022/12/30 08:17:09;;;;;;;2.63;1.80;;;7.70;1.00;;;;;;4851122;29;20670;-87
2022/12/30 08:19:37;;;;;;;8.53;2.00;;;7.80;1.00;;;;;;4850617;29;20247;-87
2022/12/30 08:25:02;;;;;;;5.97;1.75;;;8.00;1.00;;;;;;4851633;29;20480;-87
2022/12/30 08:27:32;;;;;;;5.53;1.67;;;8.00;99.90;;;;;;4852476;29;20264;-87
2022/12/30 08:29:57;;;;;;;5.53;1.70;;;8.10;99.90;;;;;;4855008;29;20512;-88
2022/12/30 08:32:44;;;;;;;5.57;1.53;;;8.20;16.20;;;;;;4853271;29;20779;-86
2022/12/30 08:35:18;;;;;;;5.27;1.80;;;8.20;1.00;;;;;;4866500;29;20657;-88
2022/12/30 08:37:52;;;;;;;3.38;1.33;;;8.30;1.00;;;;;;4866016;29;20441;-88
2022/12/30 08:40:26;;;;;;;6.20;2.27;;;8.30;99.90;;;;;;4858006;29;20709;-88
2022/12/30 08:42:55;;;;;;;4.20;1.50;;;8.40;99.90;;;;;;4854946;29;20452;-88
2022/12/30 08:45:24;;;;;;;3.57;1.80;;;8.40;97.40;;;;;;4861826;29;20964;-89
2022/12/30 08:47:52;;;;;;;5.30;1.60;;;8.50;1.00;;;;;;4871707;29;20523;-88
2022/12/30 08:50:18;;;;;;;6.40;2.13;;;8.60;1.00;;;;;;4876497;29;20472;-89
2022/12/30 08:52:44;;;;;;;6.50;1.67;;;8.60;99.90;;;;;;4865047;29;20493;-89
2022/12/30 08:55:33;;;;;;;8.50;1.63;;;8.70;99.90;;;;;;4868986;29;20436;-89
2022/12/30 08:58:11;;;;;;;3.03;1.20;;;8.90;99.90;;;;;;4863623;29;20243;-88
2022/12/30 09:00:52;;;;;;;3.33;1.17;;;9.00;59.10;;;;;;4866716;29;20445;-88
2022/12/30 09:03:24;;;;;;;4.50;1.57;;;9.10;1.00;;;;;;4850087;29;21018;-89
2022/12/30 09:06:14;;;;;;;6.80;1.80;;;9.30;99.90;;;;;;4853084;29;20476;-89
2022/12/30 09:09:14;;;;;;;4.10;1.60;;;9.40;99.90;;;;;;4857793;29;20480;-88
2022/12/30 09:11:51;;;;;;;2.47;1.20;;;9.50;99.90;;;;;;4857753;29;20543;-87
2022/12/30 09:14:27;;;;;;;3.50;1.70;;;9.70;73.40;;;;;;4855128;29;20437;-89
2022/12/30 09:17:36;;;;;;;3.43;1.50;;;9.80;1.00;;;;;;4856722;29;20528;-89
2022/12/30 09:20:08;;;;;;;3.70;1.63;;;9.90;1.00;;;;;;4836858;29;20465;-89
2022/12/30 09:22:55;;;;;;;4.13;1.30;;;10.00;1.00;;;;;;4863526;29;20447;-89
2022/12/30 09:28:26;;;;;;;4.13;1.70;;;10.10;1.00;;;;;;4860118;29;20523;-89
2022/12/30 09:31:13;;;;;;;12.53;2.37;;;10.10;1.00;;;;;;4849817;29;20456;-88
2022/12/30 09:33:45;;;;;;;6.40;2.10;;;10.10;1.00;;;;;;4857162;29;20480;-89
2022/12/30 09:36:19;;;;;;;7.50;1.67;;;10.20;1.00;;;;;;4848484;29;20453;-88
2022/12/30 09:39:02;;;;;;;7.40;1.80;;;10.20;1.00;;;;;;4861667;29;20460;-89
2022/12/30 09:51:09;;;;;;;5.80;2.13;;;10.50;99.90;;;;;;4865622;29;20452;-89
2022/12/30 09:54:14;;;;;;;3.53;1.70;;;10.70;99.90;;;;;;4862884;29;20475;-89
2022/12/30 09:59:56;;;;;;;6.20;1.60;;;11.00;99.90;;;;;;4858384;29;20492;-88
2022/12/30 10:03:08;;;;;;;4.20;1.67;;;11.10;99.90;;;;;;4858710;29;20469;-88
2022/12/30 10:05:53;;;;;;;;;;;;;;;;;;;;;
2022/12/30 10:09:23;;;;;;;;;;;;;;;;;;;;;
2022/12/30 10:12:03;;;;;;;10.00;2.70;;;11.60;41.90;;;;;;4851960;29;20459;-88
2022/12/30 10:14:43;;;;;;;4.07;1.20;;;11.70;13.70;;;;;;4859648;29;22213;-89
2022/12/30 10:17:47;;;;;;;7.93;2.33;;;11.80;1.00;;;;;;4851814;29;20468;-89
2022/12/30 10:20:57;;;;;;;15.77;1.93;;;11.80;1.00;;;;;;4861120;29;22280;-89
2022/12/30 10:23:36;;;;;;;4.37;1.53;;;11.80;1.00;;;;;;4853583;29;20592;-89
2022/12/30 10:26:08;;;;;;;4.37;1.70;;;11.70;1.00;;;;;;4861060;29;20467;-89
2022/12/30 10:29:04;;;;;;;5.30;1.60;;;11.70;1.00;;;;;;4861445;29;20485;-89
2022/12/30 10:31:54;;;;;;;11.90;2.17;;;11.60;1.00;;;;;;4856108;29;20472;-89
2022/12/30 10:34:35;;;;;;;3.63;1.50;;;11.60;1.00;;;;;;4860934;29;20450;-89
2022/12/30 10:37:13;;;;;;;5.97;2.00;;;11.50;1.00;;;;;;4858793;29;21150;-89
2022/12/30 10:40:06;;;;;;;6.13;2.23;;;11.40;1.00;;;;;;4864527;29;20467;-89
2022/12/30 10:42:51;;;;;;;3.30;1.57;;;11.40;1.00;;;;;;4859652;29;20464;-89
2022/12/30 10:53:10;;;;;;;4.03;1.37;;;11.20;1.00;;;;;;4841730;29;21020;-88
2022/12/30 10:55:56;;;;;;;4.80;2.00;;;11.10;1.00;;;;;;4844865;29;20911;-89
2022/12/30 10:59:11;;;;;;;3.50;2.00;;;11.00;1.00;;;;;;4855258;29;20479;-86
2022/12/30 11:01:45;;;;;;;2.53;1.57;;;10.90;1.00;;;;;;4813592;29;20450;-88
2022/12/30 11:04:43;;;;;;;6.13;1.43;;;10.80;1.00;;;;;;4861596;29;21035;-88
2022/12/30 11:07:12;;;;;;;4.70;2.20;;;10.70;12.80;;;;;;4856631;29;20445;-88
2022/12/30 11:09:47;;;;;;;2.90;1.70;;;10.70;30.50;;;;;;4854760;29;20544;-87
2022/12/30 11:15:31;;;;;;;2.70;1.50;;;10.60;58.40;;;;;;4861769;29;20581;-87
2022/12/30 11:17:59;;;;;;;5.73;1.53;;;10.60;58.00;;;;;;4857220;29;20445;-87
2022/12/30 11:20:56;;;;;;;4.83;1.63;;;10.50;54.50;;;;;;4853903;29;20440;-88
2022/12/30 11:23:34;;;;;;;6.60;1.90;;;10.60;68.80;;;;;;4854639;29;20436;-89
2022/12/30 11:26:15;;;;;;;4.03;1.73;;;10.60;76.00;;;;;;4872614;29;20504;-87
2022/12/30 11:28:45;;;;;;;4.57;2.33;;;10.50;99.90;;;;;;4872216;29;20511;-88
2022/12/30 11:31:18;;;;;;;4.67;1.97;;;10.50;99.90;;;;;;4862263;29;20477;-89
2022/12/30 11:34:01;;;;;;;5.60;1.93;;;10.50;99.90;;;;;;4860037;29;20441;-89
2022/12/30 11:36:35;;;;;;;5.90;2.10;;;10.50;99.90;;;;;;4861723;29;20501;-88
2022/12/30 11:42:38;;;;;;;7.67;2.37;;;10.50;99.90;;;;;;4843462;29;20429;-87
2022/12/30 11:45:36;;;;;;;5.73;2.20;;;10.40;99.90;;;;;;4849021;29;20459;-88
2022/12/30 11:48:16;;;;;;;5.93;1.67;;;10.40;99.90;;;;;;4850019;29;20477;-88
2022/12/30 11:50:54;;;;;;;11.97;2.27;;;10.30;99.90;;;;;;4851472;29;21153;-88
2022/12/30 11:53:39;;;;;;;6.80;1.60;;;10.30;99.90;;;;;;4847889;29;20452;-89
2022/12/30 11:56:05;;;;;;;6.10;2.03;;;10.30;99.90;;;;;;4849470;29;20458;-88
2022/12/30 11:58:41;;;;;;;3.87;1.70;;;10.30;99.90;;;;;;4860777;29;20556;-88
2022/12/30 12:01:12;;;;;;;4.10;1.60;;;10.30;99.90;;;;;;4857028;29;20813;-87
2022/12/30 12:04:00;;;;;;;6.20;1.90;;;10.40;99.90;;;;;;4859754;29;20445;-88
2022/12/30 12:06:37;;;;;;;5.90;1.53;;;10.40;99.90;;;;;;4855543;29;20446;-88
2022/12/30 12:09:16;;;;;;;3.20;1.60;;;10.50;99.90;;;;;;4864668;29;20514;-88
2022/12/30 12:11:54;;;;;;;2.13;1.33;;;10.50;99.90;;;;;;4857548;29;20864;-88
2022/12/30 12:14:34;;;;;;;4.20;1.50;;;10.50;99.90;;;;;;4857814;29;20883;-89
2022/12/30 12:17:38;;;;;;;4.53;1.30;;;10.60;99.90;;;;;;4861240;29;20801;-88
2022/12/30 12:20:40;;;;;;;6.47;2.00;;;10.60;99.90;;;;;;4858034;29;20504;-87
2022/12/30 12:23:27;;;;;;;7.97;1.70;;;10.60;99.90;;;;;;4859164;29;21044;-86
2022/12/30 12:26:25;;;;;;;4.50;1.60;;;10.50;99.90;;;;;;4858808;29;20444;-88
2022/12/30 12:29:01;;;;;;;5.40;1.80;;;10.50;99.90;;;;;;4862513;29;20979;-88
2022/12/30 12:31:53;;;;;;;4.80;1.90;;;10.40;99.90;;;;;;4860942;29;20440;-88
2022/12/30 12:34:40;;;;;;;8.03;2.70;;;10.30;99.90;;;;;;4861592;29;20583;-88
2022/12/30 12:37:39;;;;;;;5.87;1.67;;;10.30;99.90;;;;;;4858342;29;20452;-88
2022/12/30 12:40:32;;;;;;;4.40;1.43;;;10.20;99.90;;;;;;4864972;29;21071;-88
2022/12/30 12:43:23;;;;;;;3.97;1.80;;;10.20;99.90;;;;;;4852701;29;20453;-87
2022/12/30 12:46:21;;;;;;;7.17;1.40;;;10.10;99.90;;;;;;4858038;29;20589;-88
2022/12/30 12:49:18;;;;;;;4.80;1.30;;;10.10;1.00;;;;;;4856272;29;20603;-88
2022/12/30 12:52:06;;;;;;;9.33;1.87;;;10.20;1.00;;;;;;4849685;29;20529;-89
2022/12/30 12:54:44;;;;;;;4.20;1.80;;;10.20;1.00;;;;;;4858629;29;20452;-88
2022/12/30 12:57:36;;;;;;;6.50;2.27;;;10.30;1.00;;;;;;4854528;29;20968;-88
2022/12/30 13:00:22;;;;;;;6.00;1.20;;;10.40;1.00;;;;;;4860949;29;20479;-88
2022/12/30 13:03:38;;;;;;;;;;;;;;;;;;;;;
2022/12/30 13:06:28;;;;;;;8.53;1.40;;;10.50;1.00;;;;;;4859643;29;20441;-87
2022/12/30 13:09:18;;;;;;;4.73;1.70;;;10.50;99.90;;;;;;4872364;29;20856;-88
2022/12/30 13:12:10;;;;;;;9.33;1.90;;;10.50;1.00;;;;;;4862087;29;20451;-88
2022/12/30 13:14:58;;;;;;;6.37;1.80;;;10.50;99.90;;;;;;4867212;29;20973;-88
2022/12/30 13:17:52;;;;;;;;;;;;;;;;;;;;;
2022/12/30 13:20:45;;;;;;;4.50;1.63;;;10.30;99.90;;;;;;4857353;29;20480;-89
2022/12/30 13:23:21;;;;;;;6.77;2.23;;;10.20;1.00;;;;;;4861123;29;20453;-88
2022/12/30 13:26:30;;;;;;;7.50;2.30;;;10.10;1.00;;;;;;4861334;29;20543;-88
2022/12/30 13:32:51;;;;;;;12.43;3.20;;;9.90;1.00;;;;;;4875008;29;20463;-86
2022/12/30 13:35:50;;;;;;;6.47;2.40;;;9.90;24.00;;;;;;4859615;29;20445;-87
2022/12/30 13:39:00;;;;;;;7.17;2.60;;;9.90;99.90;;;;;;4867020;29;20482;-87
2022/12/30 13:41:43;;;;;;;4.20;2.87;;;9.80;99.90;;;;;;4849603;29;20449;-86
2022/12/30 13:44:19;;;;;;;10.50;3.70;;;9.80;99.90;;;;;;4852995;29;20585;-87
2022/12/30 13:46:53;;;;;;;8.40;3.00;;;9.80;99.90;;;;;;4863023;29;21024;-87
2022/12/30 13:49:35;;;;;;;10.67;3.57;;;9.70;1.00;;;;;;4866482;29;20490;-88
2022/12/30 13:52:25;;;;;;;11.50;3.50;;;9.70;1.00;;;;;;4851820;29;20441;-87
2022/12/30 13:55:15;;;;;;;6.00;3.70;;;9.60;1.00;;;;;;4858967;29;20509;-90
2022/12/30 14:00:45;;;;;;;5.90;2.60;;;9.50;1.00;;;;;;4859978;29;20458;-88
2022/12/30 14:03:36;;;;;;;5.63;2.67;;;9.40;1.00;;;;;;4866886;29;20815;-88
2022/12/30 14:06:43;;;;;;;8.60;3.97;;;9.40;1.00;;;;;;4853681;29;20449;-88
2022/12/30 14:09:44;;;;;;;12.20;3.63;;;9.30;1.00;;;;;;4861715;29;20516;-88
2022/12/30 14:15:59;;;;;;;6.90;2.73;;;9.40;1.00;;;;;;4862542;29;20473;-88
2022/12/30 14:19:22;;;;;;;4.77;2.13;;;9.40;1.00;;;;;;4865123;29;20468;-88
2022/12/30 14:21:55;;;;;;;4.93;2.50;;;9.40;1.00;;;;;;4841330;29;20598;-89
2022/12/30 14:24:39;;;;;;;4.90;2.03;;;9.40;1.00;;;;;;4840098;29;20462;-89
2022/12/30 14:27:56;;;;;;;5.03;2.50;;;9.40;1.00;;;;;;4865948;29;20452;-89
2022/12/30 14:30:51;;;;;;;10.30;5.00;;;9.40;1.00;;;;;;4859789;29;20457;-89
2022/12/30 14:33:51;;;;;;;7.90;3.53;;;9.30;1.00;;;;;;4858576;29;20458;-89
2022/12/30 14:36:22;;;;;;;35.30;16.53;;;9.30;1.00;;;;;;4861945;29;20965;-89
2022/12/30 14:39:22;;;;;;;17.90;9.57;;;9.30;1.00;;;;;;4864780;29;20468;-89
2022/12/30 14:42:28;;;;;;;15.07;9.27;;;9.40;1.00;;;;;;4864966;29;20660;-89
2022/12/30 14:44:58;;;;;;;7.17;3.60;;;9.40;1.00;;;;;;4858281;29;20457;-88
2022/12/30 14:47:46;;;;;;;4.97;2.50;;;9.50;1.00;;;;;;4865164;29;20475;-89
2022/12/30 14:50:42;;;;;;;21.80;15.53;;;9.50;1.00;;;;;;4863630;29;21025;-88
2022/12/30 14:53:12;;;;;;;5.40;3.50;;;9.50;1.00;;;;;;4865292;29;20448;-89
2022/12/30 14:55:59;;;;;;;4.10;2.50;;;9.50;1.00;;;;;;4858871;29;20452;-88
2022/12/30 14:59:00;;;;;;;3.40;2.30;;;9.50;1.00;;;;;;4858328;29;21028;-89
2022/12/30 15:01:26;;;;;;;4.50;2.37;;;9.60;1.00;;;;;;4871887;29;20449;-93
2022/12/30 15:04:37;;;;;;;2.37;1.47;;;9.60;1.00;;;;;;4878230;29;20452;-90
2022/12/30 15:07:20;;;;;;;5.57;3.00;;;9.70;1.00;;;;;;4867475;29;20696;-89
2022/12/30 15:10:01;;;;;;;1.63;1.20;;;9.80;1.00;;;;;;4861300;29;20465;-89
2022/12/30 15:16:17;;;;;;;1.53;1.10;;;9.90;1.00;;;;;;4847320;29;20447;-89
2022/12/30 15:19:40;;;;;;;4.07;0.90;;;10.00;1.00;;;;;;4837453;29;20468;-88
2022/12/30 15:22:26;;;;;;;1.93;1.10;;;10.10;1.00;;;;;;4833564;29;20452;-89
2022/12/30 15:25:23;;;;;;;1.40;0.90;;;10.10;1.00;;;;;;4855393;29;20442;-88
2022/12/30 15:28:38;;;;;;;1.53;1.20;;;10.20;1.00;;;;;;4859137;29;20543;-88
2022/12/30 15:31:24;;;;;;;2.43;0.97;;;10.30;1.00;;;;;;4871708;29;20451;-90
2022/12/30 15:37:55;;;;;;;;;;;;;;;;;;;;;
2022/12/30 15:41:04;;;;;;;3.10;1.10;;;10.50;1.00;;;;;;4851950;29;20480;-87
2022/12/30 15:43:41;;;;;;;0.93;0.70;;;10.60;1.00;;;;;;4851723;29;20464;-88